sensor_id;sensor_type;location;lat;lon;timestamp;pressure;altitude;pressure_sealevel;temperature;humidity
19150;BME280;9707;49.158;8.632;2023-07-29T00:00:51;99860.13;;;26.70;45.87
19150;BME280;9707;49.158;8.632;2023-07-29T00:03:17;99864.78;;;26.70;45.65
19150;BME280;9707;49.158;8.632;2023-07-29T00:05:42;99854.84;;;26.69;45.75
19150;BME280;9707;49.158;8.632;2023-07-29T00:08:07;99857.56;;;26.69;45.68
19150;BME280;9707;49.158;8.632;2023-07-29T00:10:36;99864.78;;;26.70;45.79
19150;BME280;9707;49.158;8.632;2023-07-29T00:13:01;99852.13;;;26.69;46.13
19150;BME280;9707;49.158;8.632;2023-07-29T00:15:26;99854.84;;;26.69;45.47
19150;BME280;9707;49.158;8.632;2023-07-29T00:17:52;99851.13;;;26.70;45.27
19150;BME280;9707;49.158;8.632;2023-07-29T00:20:17;99848.38;;;26.70;45.53
19150;BME280;9707;49.158;8.632;2023-07-29T00:22:44;99845.66;;;26.70;45.74
19150;BME280;9707;49.158;8.632;2023-07-29T00:25:10;99846.66;;;26.69;45.61
19150;BME280;9707;49.158;8.632;2023-07-29T00:27:35;99844.78;;;26.69;45.67
19150;BME280;9707;49.158;8.632;2023-07-29T00:30:00;99841.19;;;26.69;45.42
19150;BME280;9707;49.158;8.632;2023-07-29T00:32:29;99841.19;;;26.69;45.65
19150;BME280;9707;49.158;8.632;2023-07-29T00:34:54;99843.25;;;26.67;45.72
19150;BME280;9707;49.158;8.632;2023-07-29T00:37:19;99834.03;;;26.68;45.70
19150;BME280;9707;49.158;8.632;2023-07-29T00:39:45;99839.47;;;26.68;45.61
19150;BME280;9707;49.158;8.632;2023-07-29T00:42:10;99827.72;;;26.67;45.50
19150;BME280;9707;49.158;8.632;2023-07-29T00:44:35;99832.31;;;26.67;45.51
19150;BME280;9707;49.158;8.632;2023-07-29T00:47:02;99826.84;;;26.67;45.75
19150;BME280;9707;49.158;8.632;2023-07-29T00:49:28;99819.69;;;26.66;46.05
19150;BME280;9707;49.158;8.632;2023-07-29T00:51:53;99808.75;;;26.66;45.97
19150;BME280;9707;49.158;8.632;2023-07-29T00:54:19;99812.53;;;26.65;45.87
19150;BME280;9707;49.158;8.632;2023-07-29T00:56:44;99823.47;;;26.65;45.73
19150;BME280;9707;49.158;8.632;2023-07-29T00:59:10;99819.88;;;26.64;45.84
19150;BME280;9707;49.158;8.632;2023-07-29T01:01:35;99817.13;;;26.64;45.83
19150;BME280;9707;49.158;8.632;2023-07-29T01:04:00;99809.97;;;26.63;45.93
19150;BME280;9707;49.158;8.632;2023-07-29T01:09:20;99813.72;;;26.62;46.18
19150;BME280;9707;49.158;8.632;2023-07-29T01:11:59;99816.63;;;26.61;45.96
19150;BME280;9707;49.158;8.632;2023-07-29T01:14:39;99805.72;;;26.61;46.29
19150;BME280;9707;49.158;8.632;2023-07-29T01:17:13;99802.09;;;26.60;46.07
19150;BME280;9707;49.158;8.632;2023-07-29T01:20:09;99794.78;;;26.61;45.77
19150;BME280;9707;49.158;8.632;2023-07-29T01:22:39;99793.06;;;26.60;45.44
19150;BME280;9707;49.158;8.632;2023-07-29T01:25:05;99783.84;;;26.61;45.54
19150;BME280;9707;49.158;8.632;2023-07-29T01:27:31;99782.97;;;26.60;45.56
19150;BME280;9707;49.158;8.632;2023-07-29T01:29:58;99786.59;;;26.61;45.39
19150;BME280;9707;49.158;8.632;2023-07-29T01:32:37;99783.84;;;26.61;45.68
19150;BME280;9707;49.158;8.632;2023-07-29T01:35:31;99787.63;;;26.60;45.70
19150;BME280;9707;49.158;8.632;2023-07-29T01:38:05;99785.06;;;26.58;45.58
19150;BME280;9707;49.158;8.632;2023-07-29T01:40:32;99784.19;;;26.58;45.71
19150;BME280;9707;49.158;8.632;2023-07-29T01:42:58;99781.47;;;26.58;45.73
19150;BME280;9707;49.158;8.632;2023-07-29T01:45:24;99777.03;;;26.57;45.46
19150;BME280;9707;49.158;8.632;2023-07-29T01:47:52;99770.53;;;26.58;45.74
19150;BME280;9707;49.158;8.632;2023-07-29T01:50:18;99779.41;;;26.60;45.50
19150;BME280;9707;49.158;8.632;2023-07-29T01:52:43;99779.41;;;26.60;45.57
19150;BME280;9707;49.158;8.632;2023-07-29T01:55:08;99777.69;;;26.59;45.91
19150;BME280;9707;49.158;8.632;2023-07-29T01:57:34;99778.72;;;26.58;45.39
19150;BME280;9707;49.158;8.632;2023-07-29T01:59:59;99774.13;;;26.58;45.49
19150;BME280;9707;49.158;8.632;2023-07-29T02:02:24;99776.69;;;26.60;45.45
19150;BME280;9707;49.158;8.632;2023-07-29T02:04:50;99770.53;;;26.58;45.31
19150;BME280;9707;49.158;8.632;2023-07-29T02:07:20;99778.72;;;26.58;45.43
19150;BME280;9707;49.158;8.632;2023-07-29T02:09:45;99787.09;;;26.56;45.54
19150;BME280;9707;49.158;8.632;2023-07-29T02:12:10;99773.44;;;26.56;45.46
19150;BME280;9707;49.158;8.632;2023-07-29T02:14:36;99777.19;;;26.55;45.64
19150;BME280;9707;49.158;8.632;2023-07-29T02:17:01;99782.50;;;26.57;45.50
19150;BME280;9707;49.158;8.632;2023-07-29T02:19:26;99778.88;;;26.56;45.51
19150;BME280;9707;49.158;8.632;2023-07-29T02:21:52;99776.16;;;26.56;45.78
19150;BME280;9707;49.158;8.632;2023-07-29T02:24:17;99772.59;;;26.56;45.26
19150;BME280;9707;49.158;8.632;2023-07-29T02:26:45;99767.78;;;26.58;45.13
19150;BME280;9707;49.158;8.632;2023-07-29T02:29:10;99771.22;;;26.60;45.27
19150;BME280;9707;49.158;8.632;2023-07-29T02:31:35;99780.41;;;26.59;45.21
19150;BME280;9707;49.158;8.632;2023-07-29T02:34:02;99787.63;;;26.60;45.13
19150;BME280;9707;49.158;8.632;2023-07-29T02:36:28;99790.34;;;26.60;45.20
19150;BME280;9707;49.158;8.632;2023-07-29T02:38:53;99795.13;;;26.58;44.89
19150;BME280;9707;49.158;8.632;2023-07-29T02:41:18;99790.53;;;26.58;45.45
19150;BME280;9707;49.158;8.632;2023-07-29T02:43:48;99791.72;;;26.56;45.45
19150;BME280;9707;49.158;8.632;2023-07-29T02:46:13;99798.88;;;26.57;45.38
19150;BME280;9707;49.158;8.632;2023-07-29T02:48:38;99793.41;;;26.57;45.36
19150;BME280;9707;49.158;8.632;2023-07-29T02:51:04;99804.50;;;26.55;45.55
19150;BME280;9707;49.158;8.632;2023-07-29T02:53:29;99790.00;;;26.55;45.43
19150;BME280;9707;49.158;8.632;2023-07-29T02:55:54;99782.78;;;26.54;45.41
19150;BME280;9707;49.158;8.632;2023-07-29T02:58:20;99783.66;;;26.54;45.42
19150;BME280;9707;49.158;8.632;2023-07-29T03:00:45;99773.44;;;26.56;45.31
19150;BME280;9707;49.158;8.632;2023-07-29T03:03:12;99766.09;;;26.57;45.53
19150;BME280;9707;49.158;8.632;2023-07-29T03:05:37;99760.81;;;26.55;45.57
19150;BME280;9707;49.158;8.632;2023-07-29T03:08:03;99757.22;;;26.55;45.55
19150;BME280;9707;49.158;8.632;2023-07-29T03:10:28;99757.22;;;26.55;45.67
19150;BME280;9707;49.158;8.632;2023-07-29T03:12:54;99749.00;;;26.55;45.45
19150;BME280;9707;49.158;8.632;2023-07-29T03:15:23;99744.56;;;26.54;45.41
19150;BME280;9707;49.158;8.632;2023-07-29T03:17:48;99737.09;;;26.56;45.51
19150;BME280;9707;49.158;8.632;2023-07-29T03:20:14;99738.94;;;26.55;45.27
19150;BME280;9707;49.158;8.632;2023-07-29T03:22:39;99740.66;;;26.56;45.33
19150;BME280;9707;49.158;8.632;2023-07-29T03:25:05;99733.50;;;26.55;45.34
19150;BME280;9707;49.158;8.632;2023-07-29T03:27:31;99724.44;;;26.55;46.25
19150;BME280;9707;49.158;8.632;2023-07-29T03:29:56;99722.69;;;26.54;45.63
19150;BME280;9707;49.158;8.632;2023-07-29T03:32:24;99715.53;;;26.53;45.87
19150;BME280;9707;49.158;8.632;2023-07-29T03:34:49;99709.03;;;26.54;45.68
19150;BME280;9707;49.158;8.632;2023-07-29T03:37:15;99710.06;;;26.53;45.60
19150;BME280;9707;49.158;8.632;2023-07-29T03:39:40;99711.97;;;26.52;45.66
19150;BME280;9707;49.158;8.632;2023-07-29T03:42:05;99723.72;;;26.53;45.78
19150;BME280;9707;49.158;8.632;2023-07-29T03:44:30;99724.75;;;26.52;45.62
19150;BME280;9707;49.158;8.632;2023-07-29T03:46:56;99726.47;;;26.53;45.86
19150;BME280;9707;49.158;8.632;2023-07-29T03:49:22;99725.44;;;26.54;45.70
19150;BME280;9707;49.158;8.632;2023-07-29T03:51:47;99724.75;;;26.52;45.71
19150;BME280;9707;49.158;8.632;2023-07-29T03:54:12;99726.63;;;26.51;45.74
19150;BME280;9707;49.158;8.632;2023-07-29T03:56:38;99715.72;;;26.51;45.63
19150;BME280;9707;49.158;8.632;2023-07-29T03:59:04;99710.25;;;26.51;45.50
19150;BME280;9707;49.158;8.632;2023-07-29T04:01:30;99711.97;;;26.52;45.38
19150;BME280;9707;49.158;8.632;2023-07-29T04:03:55;99709.25;;;26.52;45.88
19150;BME280;9707;49.158;8.632;2023-07-29T04:06:20;99702.91;;;26.52;45.54
19150;BME280;9707;49.158;8.632;2023-07-29T04:08:46;99709.25;;;26.52;45.30
19150;BME280;9707;49.158;8.632;2023-07-29T04:11:11;99723.72;;;26.53;45.60
19150;BME280;9707;49.158;8.632;2023-07-29T04:13:36;99730.22;;;26.52;45.72
19150;BME280;9707;49.158;8.632;2023-07-29T04:16:03;99733.81;;;26.52;45.66
19150;BME280;9707;49.158;8.632;2023-07-29T04:18:31;99736.56;;;26.52;45.64
19150;BME280;9707;49.158;8.632;2023-07-29T04:21:00;99745.59;;;26.53;45.68
19150;BME280;9707;49.158;8.632;2023-07-29T04:23:25;99749.34;;;26.52;45.88
19150;BME280;9707;49.158;8.632;2023-07-29T04:25:53;99753.78;;;26.53;45.96
19150;BME280;9707;49.158;8.632;2023-07-29T04:28:21;99742.84;;;26.53;45.65
19150;BME280;9707;49.158;8.632;2023-07-29T04:30:47;99724.75;;;26.52;45.79
19150;BME280;9707;49.158;8.632;2023-07-29T04:33:12;99742.03;;;26.52;45.72
19150;BME280;9707;49.158;8.632;2023-07-29T04:35:38;99759.25;;;26.53;45.87
19150;BME280;9707;49.158;8.632;2023-07-29T04:38:03;99759.25;;;26.53;45.96
19150;BME280;9707;49.158;8.632;2023-07-29T04:40:28;99735.69;;;26.52;46.17
19150;BME280;9707;49.158;8.632;2023-07-29T04:42:54;99752.09;;;26.52;46.48
19150;BME280;9707;49.158;8.632;2023-07-29T04:45:19;99752.09;;;26.52;46.79
19150;BME280;9707;49.158;8.632;2023-07-29T04:47:45;99758.41;;;26.52;46.63
19150;BME280;9707;49.158;8.632;2023-07-29T04:50:10;99746.63;;;26.52;46.73
19150;BME280;9707;49.158;8.632;2023-07-29T04:52:35;99736.56;;;26.52;46.52
19150;BME280;9707;49.158;8.632;2023-07-29T04:55:00;99741.16;;;26.52;46.61
19150;BME280;9707;49.158;8.632;2023-07-29T04:57:26;99737.38;;;26.53;46.54
19150;BME280;9707;49.158;8.632;2023-07-29T04:59:51;99749.34;;;26.52;46.46
19150;BME280;9707;49.158;8.632;2023-07-29T05:02:16;99745.75;;;26.51;46.34
19150;BME280;9707;49.158;8.632;2023-07-29T05:04:42;99746.63;;;26.52;46.04
19150;BME280;9707;49.158;8.632;2023-07-29T05:07:07;99748.50;;;26.51;46.05
19150;BME280;9707;49.158;8.632;2023-07-29T05:09:32;99743.88;;;26.52;45.71
19150;BME280;9707;49.158;8.632;2023-07-29T05:11:57;99739.28;;;26.52;46.04
19150;BME280;9707;49.158;8.632;2023-07-29T05:14:23;99736.34;;;26.54;45.87
19150;BME280;9707;49.158;8.632;2023-07-29T05:16:48;99736.34;;;26.54;46.03
19150;BME280;9707;49.158;8.632;2023-07-29T05:19:14;99737.22;;;26.54;46.37
19150;BME280;9707;49.158;8.632;2023-07-29T05:21:39;99737.38;;;26.53;46.26
19150;BME280;9707;49.158;8.632;2023-07-29T05:24:04;99741.16;;;26.52;46.47
19150;BME280;9707;49.158;8.632;2023-07-29T05:26:30;99750.00;;;26.54;46.25
19150;BME280;9707;49.158;8.632;2023-07-29T05:28:55;99750.00;;;26.54;46.29
19150;BME280;9707;49.158;8.632;2023-07-29T05:31:21;99746.28;;;26.55;46.58
19150;BME280;9707;49.158;8.632;2023-07-29T05:33:47;99742.56;;;26.56;46.30
19150;BME280;9707;49.158;8.632;2023-07-29T05:36:12;99747.16;;;26.55;46.38
19150;BME280;9707;49.158;8.632;2023-07-29T05:38:37;99751.56;;;26.56;46.80
19150;BME280;9707;49.158;8.632;2023-07-29T05:41:03;99748.00;;;26.56;46.58
19150;BME280;9707;49.158;8.632;2023-07-29T05:43:28;99747.84;;;26.57;46.97
19150;BME280;9707;49.158;8.632;2023-07-29T05:45:53;99745.94;;;26.58;46.53
19150;BME280;9707;49.158;8.632;2023-07-29T05:48:21;99747.84;;;26.57;46.57
19150;BME280;9707;49.158;8.632;2023-07-29T05:50:47;99756.88;;;26.58;46.65
19150;BME280;9707;49.158;8.632;2023-07-29T05:53:13;99755.84;;;26.59;46.88
19150;BME280;9707;49.158;8.632;2023-07-29T05:55:38;99759.44;;;26.59;46.89
19150;BME280;9707;49.158;8.632;2023-07-29T05:58:04;99755.84;;;26.59;46.64
19150;BME280;9707;49.158;8.632;2023-07-29T06:00:29;99770.19;;;26.61;46.97
19150;BME280;9707;49.158;8.632;2023-07-29T06:02:54;99771.88;;;26.62;46.82
19150;BME280;9707;49.158;8.632;2023-07-29T06:05:19;99769.16;;;26.62;46.64
19150;BME280;9707;49.158;8.632;2023-07-29T06:07:45;99768.13;;;26.63;47.22
19150;BME280;9707;49.158;8.632;2023-07-29T06:10:13;99768.13;;;26.63;47.15
19150;BME280;9707;49.158;8.632;2023-07-29T06:12:38;99773.41;;;26.64;47.17
19150;BME280;9707;49.158;8.632;2023-07-29T06:15:04;99777.00;;;26.65;46.97
19150;BME280;9707;49.158;8.632;2023-07-29T06:17:30;99771.56;;;26.65;46.98
19150;BME280;9707;49.158;8.632;2023-07-29T06:19:55;99765.06;;;26.66;46.87
19150;BME280;9707;49.158;8.632;2023-07-29T06:22:20;99772.22;;;26.67;46.98
19150;BME280;9707;49.158;8.632;2023-07-29T06:24:45;99769.47;;;26.67;47.10
19150;BME280;9707;49.158;8.632;2023-07-29T06:27:11;99784.00;;;26.67;47.00
19150;BME280;9707;49.158;8.632;2023-07-29T06:29:39;99791.16;;;26.68;46.58
19150;BME280;9707;49.158;8.632;2023-07-29T06:32:05;99781.06;;;26.69;47.18
19150;BME280;9707;49.158;8.632;2023-07-29T06:34:30;99799.19;;;26.70;47.04
19150;BME280;9707;49.158;8.632;2023-07-29T06:36:55;99793.72;;;26.70;46.88
19150;BME280;9707;49.158;8.632;2023-07-29T06:39:20;99788.28;;;26.70;47.04
19150;BME280;9707;49.158;8.632;2023-07-29T06:41:46;99791.66;;;26.72;47.03
19150;BME280;9707;49.158;8.632;2023-07-29T06:44:11;99791.66;;;26.72;47.34
19150;BME280;9707;49.158;8.632;2023-07-29T06:46:36;99788.75;;;26.73;47.76
19150;BME280;9707;49.158;8.632;2023-07-29T06:49:01;99792.31;;;26.74;48.00
19150;BME280;9707;49.158;8.632;2023-07-29T06:51:27;99796.78;;;26.75;47.93
19150;BME280;9707;49.158;8.632;2023-07-29T06:53:54;99802.25;;;26.75;47.94
19150;BME280;9707;49.158;8.632;2023-07-29T06:56:19;99801.22;;;26.76;47.86
19150;BME280;9707;49.158;8.632;2023-07-29T06:58:44;99804.78;;;26.76;47.90
19150;BME280;9707;49.158;8.632;2023-07-29T07:01:10;99800.19;;;26.77;48.09
19150;BME280;9707;49.158;8.632;2023-07-29T07:03:35;99798.13;;;26.79;48.37
19150;BME280;9707;49.158;8.632;2023-07-29T07:06:00;99798.13;;;26.79;48.12
19150;BME280;9707;49.158;8.632;2023-07-29T07:08:26;99787.88;;;26.81;48.11
19150;BME280;9707;49.158;8.632;2023-07-29T07:10:51;99790.63;;;26.81;48.34
19150;BME280;9707;49.158;8.632;2023-07-29T07:13:19;99791.44;;;26.81;48.13
19150;BME280;9707;49.158;8.632;2023-07-29T07:15:44;99788.53;;;26.83;48.29
19150;BME280;9707;49.158;8.632;2023-07-29T07:18:10;99789.41;;;26.83;48.83
19150;BME280;9707;49.158;8.632;2023-07-29T07:20:35;99790.25;;;26.84;48.08
19150;BME280;9707;49.158;8.632;2023-07-29T07:23:00;99790.06;;;26.85;48.45
19150;BME280;9707;49.158;8.632;2023-07-29T07:25:26;99791.78;;;26.86;48.87
19150;BME280;9707;49.158;8.632;2023-07-29T07:27:51;99797.06;;;26.88;48.83
19150;BME280;9707;49.158;8.632;2023-07-29T07:30:16;99799.81;;;26.88;49.00
19150;BME280;9707;49.158;8.632;2023-07-29T07:32:41;99799.63;;;26.89;49.22
19150;BME280;9707;49.158;8.632;2023-07-29T07:35:07;99805.97;;;26.90;49.10
19150;BME280;9707;49.158;8.632;2023-07-29T07:37:32;99797.75;;;26.90;49.08
19150;BME280;9707;49.158;8.632;2023-07-29T07:39:58;99787.50;;;26.92;49.28
19150;BME280;9707;49.158;8.632;2023-07-29T07:42:23;99785.41;;;26.94;49.42
19150;BME280;9707;49.158;8.632;2023-07-29T07:44:48;99780.81;;;26.94;49.52
19150;BME280;9707;49.158;8.632;2023-07-29T07:47:14;99797.88;;;26.96;49.72
19150;BME280;9707;49.158;8.632;2023-07-29T07:49:41;99795.84;;;26.98;49.51
19150;BME280;9707;49.158;8.632;2023-07-29T07:52:07;99799.41;;;26.99;49.94
19150;BME280;9707;49.158;8.632;2023-07-29T07:54:32;99803.88;;;27.00;49.60
19150;BME280;9707;49.158;8.632;2023-07-29T07:56:57;99793.59;;;27.02;49.82
19150;BME280;9707;49.158;8.632;2023-07-29T07:59:22;99791.72;;;27.02;49.83
19150;BME280;9707;49.158;8.632;2023-07-29T08:01:48;99800.75;;;27.03;49.75
19150;BME280;9707;49.158;8.632;2023-07-29T08:04:13;99794.25;;;27.04;49.99
19150;BME280;9707;49.158;8.632;2023-07-29T08:06:38;99805.03;;;27.05;49.82
19150;BME280;9707;49.158;8.632;2023-07-29T08:09:04;99805.88;;;27.06;49.62
19150;BME280;9707;49.158;8.632;2023-07-29T08:11:29;99802.13;;;27.07;49.65
19150;BME280;9707;49.158;8.632;2023-07-29T08:13:54;99801.94;;;27.08;49.68
19150;BME280;9707;49.158;8.632;2023-07-29T08:16:19;99812.88;;;27.08;49.47
19150;BME280;9707;49.158;8.632;2023-07-29T08:18:45;99809.94;;;27.10;49.76
19150;BME280;9707;49.158;8.632;2023-07-29T08:21:10;99817.13;;;27.11;49.73
19150;BME280;9707;49.158;8.632;2023-07-29T08:23:36;99815.25;;;27.11;49.73
19150;BME280;9707;49.158;8.632;2023-07-29T08:26:03;99824.97;;;27.14;49.83
19150;BME280;9707;49.158;8.632;2023-07-29T08:28:38;99825.84;;;27.14;50.12
19150;BME280;9707;49.158;8.632;2023-07-29T08:31:03;99819.31;;;27.15;50.01
19150;BME280;9707;49.158;8.632;2023-07-29T08:33:29;99819.16;;;27.17;50.14
19150;BME280;9707;49.158;8.632;2023-07-29T08:35:55;99818.16;;;27.18;49.85
19150;BME280;9707;49.158;8.632;2023-07-29T08:38:21;99817.13;;;27.19;49.89
19150;BME280;9707;49.158;8.632;2023-07-29T08:40:58;99820.53;;;27.21;49.84
19150;BME280;9707;49.158;8.632;2023-07-29T08:43:29;99818.81;;;27.20;50.08
19150;BME280;9707;49.158;8.632;2023-07-29T08:45:58;99815.91;;;27.21;50.02
19150;BME280;9707;49.158;8.632;2023-07-29T08:49:03;99813.00;;;27.23;50.22
19150;BME280;9707;49.158;8.632;2023-07-29T08:51:23;99818.28;;;27.24;49.99
19150;BME280;9707;49.158;8.632;2023-07-29T08:53:48;99823.59;;;27.26;49.75
19150;BME280;9707;49.158;8.632;2023-07-29T08:56:17;99817.91;;;27.27;49.83
19150;BME280;9707;49.158;8.632;2023-07-29T08:58:42;99817.75;;;27.29;49.96
19150;BME280;9707;49.158;8.632;2023-07-29T09:01:08;99827.47;;;27.31;50.08
19150;BME280;9707;49.158;8.632;2023-07-29T09:03:33;99834.66;;;27.32;50.45
19150;BME280;9707;49.158;8.632;2023-07-29T09:05:59;99830.03;;;27.33;50.43
19150;BME280;9707;49.158;8.632;2023-07-29T09:08:26;99820.81;;;27.34;50.27
19150;BME280;9707;49.158;8.632;2023-07-29T09:10:51;99822.50;;;27.35;50.58
19150;BME280;9707;49.158;8.632;2023-07-29T09:13:17;99819.59;;;27.36;50.33
19150;BME280;9707;49.158;8.632;2023-07-29T09:15:42;99822.16;;;27.38;50.23
19150;BME280;9707;49.158;8.632;2023-07-29T09:18:12;99817.34;;;27.40;49.90
19150;BME280;9707;49.158;8.632;2023-07-29T09:20:39;99808.78;;;27.43;50.36
19150;BME280;9707;49.158;8.632;2023-07-29T09:23:07;99806.72;;;27.45;50.78
19150;BME280;9707;49.158;8.632;2023-07-29T09:25:36;99817.47;;;27.46;50.83
19150;BME280;9707;49.158;8.632;2023-07-29T09:28:07;99819.19;;;27.47;50.43
19150;BME280;9707;49.158;8.632;2023-07-29T09:30:35;99819.00;;;27.49;50.13
19150;BME280;9707;49.158;8.632;2023-07-29T09:33:01;99803.44;;;27.49;49.87
19150;BME280;9707;49.158;8.632;2023-07-29T09:35:29;99809.41;;;27.53;50.18
19150;BME280;9707;49.158;8.632;2023-07-29T09:37:57;99816.56;;;27.54;50.34
19150;BME280;9707;49.158;8.632;2023-07-29T09:40:23;99812.63;;;27.56;50.19
19150;BME280;9707;49.158;8.632;2023-07-29T09:42:52;99819.63;;;27.59;50.24
19150;BME280;9707;49.158;8.632;2023-07-29T09:45:25;99821.16;;;27.61;50.13
19150;BME280;9707;49.158;8.632;2023-07-29T09:47:52;99816.53;;;27.62;50.20
19150;BME280;9707;49.158;8.632;2023-07-29T09:50:17;99819.94;;;27.64;50.36
19150;BME280;9707;49.158;8.632;2023-07-29T09:52:46;99823.34;;;27.66;50.45
19150;BME280;9707;49.158;8.632;2023-07-29T09:55:13;99809.28;;;27.69;49.73
19150;BME280;9707;49.158;8.632;2023-07-29T09:57:42;99804.50;;;27.71;50.15
19150;BME280;9707;49.158;8.632;2023-07-29T10:00:10;99814.41;;;27.72;49.65
19150;BME280;9707;49.158;8.632;2023-07-29T10:02:42;99811.28;;;27.75;49.89
19150;BME280;9707;49.158;8.632;2023-07-29T10:05:11;99822.06;;;27.76;49.74
19150;BME280;9707;49.158;8.632;2023-07-29T10:07:37;99817.28;;;27.78;49.37
19150;BME280;9707;49.158;8.632;2023-07-29T10:10:04;99807.84;;;27.81;49.72
19150;BME280;9707;49.158;8.632;2023-07-29T10:12:36;99812.31;;;27.82;49.56
19150;BME280;9707;49.158;8.632;2023-07-29T10:15:06;99818.44;;;27.84;48.87
19150;BME280;9707;49.158;8.632;2023-07-29T10:17:36;99810.91;;;27.86;49.07
19150;BME280;9707;49.158;8.632;2023-07-29T10:20:06;99813.47;;;27.87;48.71
19150;BME280;9707;49.158;8.632;2023-07-29T10:22:37;99812.25;;;27.90;48.39
19150;BME280;9707;49.158;8.632;2023-07-29T10:25:05;99808.47;;;27.91;48.12
19150;BME280;9707;49.158;8.632;2023-07-29T10:27:42;99811.88;;;27.93;48.36
19150;BME280;9707;49.158;8.632;2023-07-29T10:30:10;99814.63;;;27.93;47.98
19150;BME280;9707;49.158;8.632;2023-07-29T10:32:37;99816.31;;;27.94;48.23
19150;BME280;9707;49.158;8.632;2023-07-29T10:35:03;99826.91;;;27.97;48.02
19150;BME280;9707;49.158;8.632;2023-07-29T10:37:28;99835.13;;;27.97;47.84
19150;BME280;9707;49.158;8.632;2023-07-29T10:39:55;99834.09;;;27.98;48.36
19150;BME280;9707;49.158;8.632;2023-07-29T10:42:21;99827.56;;;27.99;48.92
19150;BME280;9707;49.158;8.632;2023-07-29T10:44:48;99819.19;;;28.00;49.06
19150;BME280;9707;49.158;8.632;2023-07-29T10:47:27;99816.28;;;28.02;49.27
19150;BME280;9707;49.158;8.632;2023-07-29T10:49:57;99813.31;;;28.03;49.10
19150;BME280;9707;49.158;8.632;2023-07-29T10:55:00;99803.06;;;28.05;49.52
19150;BME280;9707;49.158;8.632;2023-07-29T10:57:33;99807.50;;;28.06;49.52
19150;BME280;9707;49.158;8.632;2023-07-29T10:59:59;99798.06;;;28.09;49.47
19150;BME280;9707;49.158;8.632;2023-07-29T11:02:34;99787.09;;;28.09;49.29
19150;BME280;9707;49.158;8.632;2023-07-29T11:05:07;99797.00;;;28.10;49.55
19150;BME280;9707;49.158;8.632;2023-07-29T11:07:44;99793.22;;;28.11;49.70
19150;BME280;9707;49.158;8.632;2023-07-29T11:10:11;99797.47;;;28.13;49.09
19150;BME280;9707;49.158;8.632;2023-07-29T11:12:46;99803.81;;;28.14;48.74
19150;BME280;9707;49.158;8.632;2023-07-29T11:15:17;99792.88;;;28.14;48.02
19150;BME280;9707;49.158;8.632;2023-07-29T11:18:03;99795.44;;;28.15;48.10
19150;BME280;9707;49.158;8.632;2023-07-29T11:20:33;99793.34;;;28.17;48.10
19150;BME280;9707;49.158;8.632;2023-07-29T11:23:01;99806.00;;;28.18;48.50
19150;BME280;9707;49.158;8.632;2023-07-29T11:25:28;99794.88;;;28.20;48.26
19150;BME280;9707;49.158;8.632;2023-07-29T11:27:58;99803.09;;;28.20;47.34
19150;BME280;9707;49.158;8.632;2023-07-29T11:30:24;99800.16;;;28.21;47.24
19150;BME280;9707;49.158;8.632;2023-07-29T11:32:53;99810.25;;;28.21;46.50
19150;BME280;9707;49.158;8.632;2023-07-29T11:35:19;99815.72;;;28.21;45.99
19150;BME280;9707;49.158;8.632;2023-07-29T11:37:46;99816.59;;;28.21;45.45
19150;BME280;9707;49.158;8.632;2023-07-29T11:40:16;99816.59;;;28.21;45.56
19150;BME280;9707;49.158;8.632;2023-07-29T11:42:42;99812.81;;;28.22;45.70
19150;BME280;9707;49.158;8.632;2023-07-29T11:45:08;99804.41;;;28.24;45.68
19150;BME280;9707;49.158;8.632;2023-07-29T11:47:35;99809.91;;;28.24;45.74
19150;BME280;9707;49.158;8.632;2023-07-29T11:50:03;99826.97;;;28.26;45.85
19150;BME280;9707;49.158;8.632;2023-07-29T11:52:31;99820.50;;;28.27;46.42
19150;BME280;9707;49.158;8.632;2023-07-29T11:54:57;99815.03;;;28.27;45.60
19150;BME280;9707;49.158;8.632;2023-07-29T11:57:23;99806.59;;;28.28;44.87
19150;BME280;9707;49.158;8.632;2023-07-29T11:59:49;99809.16;;;28.30;44.40
19150;BME280;9707;49.158;8.632;2023-07-29T12:02:16;99808.31;;;28.29;45.01
19150;BME280;9707;49.158;8.632;2023-07-29T12:04:43;99820.09;;;28.30;45.40
19150;BME280;9707;49.158;8.632;2023-07-29T12:07:09;99817.19;;;28.31;45.58
19150;BME280;9707;49.158;8.632;2023-07-29T12:09:35;99807.09;;;28.32;45.90
19150;BME280;9707;49.158;8.632;2023-07-29T12:12:05;99791.50;;;28.32;46.53
19150;BME280;9707;49.158;8.632;2023-07-29T12:14:31;99801.41;;;28.33;46.81
19150;BME280;9707;49.158;8.632;2023-07-29T12:17:00;99802.28;;;28.34;46.66
19150;BME280;9707;49.158;8.632;2023-07-29T12:19:31;99794.06;;;28.34;46.76
19150;BME280;9707;49.158;8.632;2023-07-29T12:21:56;99794.06;;;28.34;47.27
19150;BME280;9707;49.158;8.632;2023-07-29T12:24:22;99793.88;;;28.35;47.26
19150;BME280;9707;49.158;8.632;2023-07-29T12:26:48;99791.97;;;28.36;46.69
19150;BME280;9707;49.158;8.632;2023-07-29T12:29:14;99795.75;;;28.35;47.40
19150;BME280;9707;49.158;8.632;2023-07-29T12:31:40;99798.47;;;28.35;47.53
19150;BME280;9707;49.158;8.632;2023-07-29T12:34:06;99794.06;;;28.34;46.80
19150;BME280;9707;49.158;8.632;2023-07-29T12:36:45;99795.75;;;28.35;46.32
19150;BME280;9707;49.158;8.632;2023-07-29T12:39:21;99794.06;;;28.34;46.92
19150;BME280;9707;49.158;8.632;2023-07-29T12:41:48;99782.06;;;28.35;46.34
19150;BME280;9707;49.158;8.632;2023-07-29T12:44:14;99787.53;;;28.35;46.62
19150;BME280;9707;49.158;8.632;2023-07-29T12:46:39;99789.22;;;28.36;46.37
19150;BME280;9707;49.158;8.632;2023-07-29T12:49:05;99787.53;;;28.35;45.74
19150;BME280;9707;49.158;8.632;2023-07-29T12:51:30;99778.25;;;28.36;45.85
19150;BME280;9707;49.158;8.632;2023-07-29T12:53:55;99780.00;;;28.37;46.32
19150;BME280;9707;49.158;8.632;2023-07-29T12:56:21;99775.53;;;28.36;45.87
19150;BME280;9707;49.158;8.632;2023-07-29T12:58:46;99776.38;;;28.36;45.85
19150;BME280;9707;49.158;8.632;2023-07-29T13:01:12;99771.59;;;28.38;45.68
19150;BME280;9707;49.158;8.632;2023-07-29T13:03:42;99765.09;;;28.39;45.74
19150;BME280;9707;49.158;8.632;2023-07-29T13:06:07;99776.91;;;28.40;45.54
19150;BME280;9707;49.158;8.632;2023-07-29T13:08:32;99767.63;;;28.41;45.98
19150;BME280;9707;49.158;8.632;2023-07-29T13:10:58;99780.31;;;28.42;46.12
19150;BME280;9707;49.158;8.632;2023-07-29T13:13:23;99771.22;;;28.41;45.33